Time;durP1;ratioP1;P1;durP2;ratioP2;P2;SDS_P1;SDS_P2;PMS_P1;PMS_P2;Temp;Humidity;BMP_temperature;BMP_pressure;BME280_temperature;BME280_humidity;BME280_pressure;Samples;Min_cycle;Max_cycle;Signal;HPM_P1;HPM_P2
2023/07/17 00:01:09;;;;;;;4.60;2.90;;;;;;;20.12;73.79;100443.38;104302;277;97489;-56
2023/07/17 00:03:48;;;;;;;3.40;2.60;;;;;;;20.09;74.02;100440.48;104295;277;120375;-56
2023/07/17 00:06:22;;;;;;;3.80;2.50;;;;;;;20.04;73.94;100444.62;104745;277;105398;-57
2023/07/17 00:08:56;;;;;;;3.40;2.50;;;;;;;20.00;74.15;100448.25;104733;277;113531;-57
2023/07/17 00:11:31;;;;;;;3.80;2.70;;;;;;;19.98;74.14;100447.11;104297;277;96409;-57
2023/07/17 00:14:03;;;;;;;;;;;;;;;19.95;74.05;100447.17;104294;277;96754;-57
2023/07/17 00:16:36;;;;;;;3.60;2.70;;;;;;;19.90;74.44;100440.78;104304;277;119765;-56
2023/07/17 00:19:10;;;;;;;3.00;2.60;;;;;;;19.90;74.42;100441.50;104316;277;104800;-56
2023/07/17 00:21:44;;;;;;;3.50;3.20;;;;;;;19.89;74.58;100443.45;104294;277;115137;-56
2023/07/17 00:24:18;;;;;;;5.00;2.80;;;;;;;19.93;74.44;100444.39;104310;277;96422;-56
2023/07/17 00:26:51;;;;;;;;;;;;;;;19.93;74.52;100449.95;104311;277;96131;-56
2023/07/17 00:29:28;;;;;;;4.50;3.10;;;;;;;19.90;74.63;100444.67;104274;277;120840;-56
2023/07/17 00:32:03;;;;;;;3.10;2.80;;;;;;;19.88;74.61;100448.05;104267;277;106312;-57
2023/07/17 00:34:37;;;;;;;5.90;3.30;;;;;;;19.90;74.57;100452.90;104714;277;114029;-56
2023/07/17 00:37:10;;;;;;;;;;;;;;;19.85;74.65;100449.97;104287;277;94379;-56
2023/07/17 00:39:44;;;;;;;4.50;3.20;;;;;;;19.78;74.85;100446.45;104744;277;97575;-56
2023/07/17 00:42:19;;;;;;;4.30;2.90;;;;;;;19.71;74.90;100445.55;104300;277;120600;-56
2023/07/17 00:44:52;;;;;;;3.60;3.20;;;;;;;19.62;75.13;100440.90;104259;276;105157;-57
2023/07/17 00:47:27;;;;;;;5.50;3.10;;;;;;;19.58;75.36;100441.66;104255;277;115833;-57
2023/07/17 00:50:01;;;;;;;3.00;2.70;;;;;;;19.59;75.63;100449.06;104286;277;96007;-56
2023/07/17 00:52:40;;;;;;;4.30;3.00;;;;;;;19.59;75.72;100444.67;104291;277;98532;-56
2023/07/17 00:55:16;;;;;;;6.90;3.40;;;;;;;19.61;75.62;100442.36;104287;277;122102;-57
2023/07/17 00:57:51;;;;;;;5.60;3.30;;;;;;;19.64;75.62;100438.70;104343;277;105234;-57
2023/07/17 01:00:26;;;;;;;6.20;3.60;;;;;;;19.68;75.75;100436.91;104277;277;113150;-57
2023/07/17 01:03:02;;;;;;;4.00;3.60;;;;;;;19.73;75.74;100433.46;104274;277;97401;-57
2023/07/17 01:05:37;;;;;;;5.70;3.70;;;;;;;19.74;75.86;100436.23;104316;277;98046;-57
2023/07/17 01:08:09;;;;;;;;;;;;;;;19.74;75.77;100436.63;104746;281;121108;-57
2023/07/17 01:10:43;;;;;;;3.30;2.90;;;;;;;19.71;75.89;100430.16;104305;276;105704;-56
2023/07/17 01:13:19;;;;;;;5.00;3.20;;;;;;;19.71;75.87;100428.67;104286;276;113000;-56
2023/07/17 01:15:53;;;;;;;3.40;3.10;;;;;;;19.71;75.89;100430.25;104293;276;95858;-56
2023/07/17 01:18:27;;;;;;;3.30;2.90;;;;;;;19.71;76.06;100428.27;104288;277;95986;-56
2023/07/17 01:21:01;;;;;;;3.70;3.40;;;;;;;19.73;75.98;100426.67;104736;276;118475;-56
2023/07/17 01:23:35;;;;;;;6.10;3.50;;;;;;;19.74;76.20;100423.89;104284;277;105426;-56
2023/07/17 01:26:17;;;;;;;4.10;3.40;;;;;;;19.74;76.34;100423.36;104274;277;114663;-56
2023/07/17 01:28:52;;;;;;;3.70;3.30;;;;;;;19.71;76.13;100422.96;104278;277;94707;-56
2023/07/17 01:31:26;;;;;;;5.70;3.30;;;;;;;19.66;76.29;100424.48;104306;277;96800;-57
2023/07/17 01:33:58;;;;;;;;;;;;;;;19.63;76.27;100420.80;104740;276;120237;-57
2023/07/17 01:36:32;;;;;;;4.90;3.90;;;;;;;19.58;76.36;100422.47;104718;277;103718;-57
2023/07/17 01:39:06;;;;;;;5.10;3.60;;;;;;;19.56;76.39;100425.17;104705;276;113886;-57
2023/07/17 01:41:40;;;;;;;4.80;3.90;;;;;;;19.52;76.43;100430.20;104300;277;97388;-56
2023/07/17 01:44:13;;;;;;;;;;;;;;;19.48;76.58;100435.06;104332;276;97090;-56
2023/07/17 01:46:47;;;;;;;5.70;3.30;;;;;;;19.41;76.78;100437.27;104344;276;118397;-57
2023/07/17 01:49:21;;;;;;;3.80;3.30;;;;;;;19.36;76.80;100433.88;104759;276;106380;-57
2023/07/17 01:51:55;;;;;;;4.60;3.10;;;;;;;19.33;76.96;100438.04;104251;276;114762;-56
2023/07/17 01:54:29;;;;;;;4.70;4.20;;;;;;;19.30;77.19;100441.34;104543;278;93960;-56
2023/07/17 01:57:03;;;;;;;5.60;3.60;;;;;;;19.27;77.22;100439.19;104111;278;96648;-56
2023/07/17 01:59:35;;;;;;;;;;;;;;;19.25;77.47;100440.36;104113;278;121534;-57
2023/07/17 02:02:09;;;;;;;3.90;3.50;;;;;;;19.21;77.54;100444.88;104515;278;106402;-56
2023/07/17 02:04:43;;;;;;;4.70;3.60;;;;;;;19.18;77.53;100448.70;104552;278;114096;-56
2023/07/17 02:07:17;;;;;;;3.90;3.40;;;;;;;19.15;77.63;100453.09;104060;278;97274;-56
2023/07/17 02:09:51;;;;;;;6.20;3.40;;;;;;;19.12;77.76;100450.44;104098;278;98138;-56
2023/07/17 02:12:25;;;;;;;5.60;3.90;;;;;;;19.12;77.72;100451.14;104089;278;120823;-56
2023/07/17 02:15:00;;;;;;;6.50;3.70;;;;;;;19.16;77.66;100454.58;104105;278;104736;-56
2023/07/17 02:17:34;;;;;;;4.50;4.00;;;;;;;19.16;77.94;100453.60;104074;278;114665;-56
2023/07/17 02:20:10;;;;;;;;;;;;;;;19.16;77.87;100455.57;104094;278;97460;-56
2023/07/17 02:22:44;;;;;;;5.20;4.00;;;;;;;19.13;78.03;100457.88;104080;278;97061;-56
2023/07/17 02:25:19;;;;;;;5.40;4.00;;;;;;;19.14;78.07;100456.14;104096;278;121387;-56
2023/07/17 02:27:53;;;;;;;4.10;3.70;;;;;;;19.13;78.06;100455.63;104559;282;104919;-56
2023/07/17 02:30:27;;;;;;;5.00;3.90;;;;;;;19.09;78.00;100455.00;104080;278;113518;-56
2023/07/17 02:33:01;;;;;;;4.70;4.20;;;;;;;19.05;78.23;100461.37;104550;278;97627;-56
2023/07/17 02:35:35;;;;;;;5.60;3.70;;;;;;;19.02;78.32;100466.03;104066;275;98237;-56
2023/07/17 02:38:09;;;;;;;4.70;4.20;;;;;;;19.03;78.30;100466.85;104089;278;121041;-56
2023/07/17 02:40:43;;;;;;;5.20;4.40;;;;;;;19.01;78.30;100468.25;104116;278;104720;-56
2023/07/17 02:43:16;;;;;;;6.10;3.80;;;;;;;18.97;78.50;100470.85;104109;278;116311;-56
2023/07/17 02:45:50;;;;;;;5.60;4.10;;;;;;;18.95;78.55;100470.91;104499;278;95832;-56
2023/07/17 02:48:25;;;;;;;5.40;3.90;;;;;;;18.94;78.71;100471.98;104128;278;98027;-56
2023/07/17 02:50:58;;;;;;;4.40;3.60;;;;;;;18.93;78.88;100471.30;104545;278;119287;-56
2023/07/17 02:53:33;;;;;;;4.20;3.80;;;;;;;18.97;78.87;100472.76;104062;278;106128;-56
2023/07/17 02:56:08;;;;;;;4.00;3.60;;;;;;;18.99;79.02;100474.56;104085;278;113402;-56
2023/07/17 02:58:48;;;;;;;4.20;3.60;;;;;;;19.04;79.10;100476.29;104101;278;94275;-56
2023/07/17 03:01:22;;;;;;;3.90;3.50;;;;;;;19.10;79.28;100476.60;104538;278;98034;-56
2023/07/17 03:03:56;;;;;;;6.00;3.90;;;;;;;19.17;79.17;100475.86;104521;278;120134;-56
2023/07/17 03:06:30;;;;;;;3.90;3.50;;;;;;;19.29;79.42;100477.20;104082;278;105166;-56
2023/07/17 03:09:04;;;;;;;4.60;3.60;;;;;;;19.45;79.31;100481.08;104500;278;114661;-56
2023/07/17 03:11:38;;;;;;;4.40;3.80;;;;;;;19.60;79.20;100479.52;104563;278;95703;-56
2023/07/17 03:14:12;;;;;;;5.90;3.60;;;;;;;19.72;79.25;100477.97;104552;286;96261;-56
2023/07/17 03:16:46;;;;;;;3.90;3.60;;;;;;;19.81;79.11;100479.56;104564;278;120703;-56
2023/07/17 03:19:18;;;;;;;;;;;;;;;19.91;79.22;100488.02;104131;278;104421;-56
2023/07/17 03:21:52;;;;;;;5.00;3.50;;;;;;;19.96;79.14;100492.23;104098;278;113556;-57
2023/07/17 03:24:25;;;;;;;;;;;;;;;20.04;79.06;100494.05;104118;278;97299;-56
2023/07/17 03:26:59;;;;;;;3.90;3.30;;;;;;;20.13;79.04;100496.11;104110;278;97216;-56
2023/07/17 03:29:34;;;;;;;4.20;3.50;;;;;;;20.24;78.95;100505.30;104080;278;119722;-57
2023/07/17 03:32:09;;;;;;;3.70;3.30;;;;;;;20.35;78.72;100501.19;104065;278;104690;-57
2023/07/17 03:34:43;;;;;;;4.30;3.90;;;;;;;20.41;78.64;100494.02;104078;278;112734;-57
2023/07/17 03:37:17;;;;;;;5.10;3.90;;;;;;;20.46;78.59;100488.50;104074;278;93819;-57
2023/07/17 03:39:51;;;;;;;5.30;4.00;;;;;;;20.45;78.44;100488.49;104130;278;97105;-57
2023/07/17 03:42:25;;;;;;;5.20;4.10;;;;;;;20.49;78.50;100494.36;104074;278;121524;-56
2023/07/17 03:45:00;;;;;;;4.90;3.90;;;;;;;20.52;78.51;100494.90;104106;278;105486;-57
2023/07/17 03:47:34;;;;;;;5.40;4.20;;;;;;;20.59;78.27;100495.34;104056;278;113547;-57
2023/07/17 03:50:09;;;;;;;4.80;4.30;;;;;;;21.09;78.28;100494.80;104514;278;96561;-57
2023/07/17 03:52:43;;;;;;;4.40;4.00;;;;;;;21.81;77.04;100495.52;104056;278;97351;-57
2023/07/17 03:55:18;;;;;;;5.40;4.20;;;;;;;21.73;76.80;100502.92;104059;278;120228;-57
2023/07/17 03:57:51;;;;;;;6.80;4.50;;;;;;;21.62;76.61;100496.44;104098;278;106247;-57
2023/07/17 04:00:26;;;;;;;5.20;4.20;;;;;;;21.54;76.55;100497.12;104084;279;114527;-57
2023/07/17 04:03:00;;;;;;;5.70;4.00;;;;;;;21.46;76.35;100494.06;104077;278;94089;-57
2023/07/17 04:05:34;;;;;;;6.30;4.20;;;;;;;21.39;76.26;100494.20;104115;278;97403;-57
2023/07/17 04:08:08;;;;;;;4.60;3.80;;;;;;;21.35;76.30;100500.77;104092;278;119723;-57
2023/07/17 04:10:42;;;;;;;5.50;3.60;;;;;;;21.38;76.12;100501.89;104558;278;105000;-57
2023/07/17 04:13:16;;;;;;;4.00;3.50;;;;;;;21.47;75.83;100499.67;104096;278;113890;-57
2023/07/17 04:15:51;;;;;;;4.80;4.10;;;;;;;21.57;75.83;100502.42;104116;278;93663;-57
2023/07/17 04:18:25;;;;;;;5.50;4.00;;;;;;;21.66;75.74;100504.95;104132;278;97551;-56
2023/07/17 04:20:57;;;;;;;;;;;;;;;21.74;75.57;100503.77;104109;278;120977;-57
2023/07/17 04:23:31;;;;;;;6.00;4.50;;;;;;;21.84;75.69;100499.95;104092;278;104070;-57
2023/07/17 04:26:03;;;;;;;;;;;;;;;21.92;75.40;100499.33;104106;278;113685;-57
2023/07/17 04:28:38;;;;;;;6.80;3.90;;;;;;;21.97;75.69;100502.25;104532;278;96688;-57
2023/07/17 04:31:12;;;;;;;4.80;4.20;;;;;;;22.02;75.47;100505.86;104046;278;100143;-57
2023/07/17 04:33:46;;;;;;;5.40;4.50;;;;;;;22.07;74.88;100505.98;104071;278;120597;-57
2023/07/17 04:36:18;;;;;;;;;;;;;;;22.10;74.72;100506.16;104077;278;105956;-57
2023/07/17 04:38:52;;;;;;;5.00;4.10;;;;;;;22.14;74.40;100512.86;104090;278;114434;-57
2023/07/17 04:41:26;;;;;;;5.60;4.30;;;;;;;22.26;74.36;100509.50;104063;278;95217;-57
2023/07/17 04:43:58;;;;;;;;;;;;;;;22.38;74.00;100513.98;104112;278;97018;-57
2023/07/17 04:46:32;;;;;;;6.70;4.00;;;;;;;22.52;73.92;100511.55;104092;278;121469;-57
2023/07/17 04:49:04;;;;;;;;;;;;;;;22.73;73.75;100512.10;104090;278;106142;-57
2023/07/17 04:51:38;;;;;;;4.80;3.90;;;;;;;22.93;73.24;100516.80;104074;279;114289;-57
2023/07/17 04:54:12;;;;;;;5.70;4.00;;;;;;;23.06;72.78;100524.63;104114;278;96874;-56
2023/07/17 04:56:46;;;;;;;5.70;3.70;;;;;;;23.17;72.33;100525.24;104601;278;96409;-57
2023/07/17 04:59:18;;;;;;;;;;;;;;;23.22;72.10;100525.14;104572;278;120426;-57
2023/07/17 05:01:53;;;;;;;4.30;3.60;;;;;;;23.28;72.10;100524.69;104129;278;106228;-57
2023/07/17 05:04:27;;;;;;;5.00;3.90;;;;;;;23.31;71.63;100523.05;104123;278;114061;-57
2023/07/17 05:07:02;;;;;;;4.30;3.90;;;;;;;23.20;71.50;100525.95;104112;278;92951;-57
2023/07/17 05:09:35;;;;;;;;;;;;;;;23.19;71.37;100530.44;104576;278;96956;-57
2023/07/17 05:12:10;;;;;;;5.60;4.20;;;;;;;23.35;71.29;100528.52;104554;278;120773;-57
2023/07/17 05:14:44;;;;;;;6.50;4.90;;;;;;;23.83;71.02;100531.96;104542;278;104704;-57
2023/07/17 05:17:19;;;;;;;7.00;3.70;;;;;;;25.16;69.98;100533.41;103676;278;540209;-57
2023/07/17 05:19:54;;;;;;;5.80;4.10;;;;;;;26.79;68.00;100542.26;103950;278;97256;-57
2023/07/17 05:22:28;;;;;;;5.70;3.80;;;;;;;27.12;65.63;100543.75;104132;278;98186;-57
2023/07/17 05:25:03;;;;;;;5.10;4.30;;;;;;;26.66;64.48;100545.49;104099;278;119618;-57
2023/07/17 05:27:36;;;;;;;5.60;4.00;;;;;;;26.65;64.43;100550.55;104109;278;104737;-54
2023/07/17 05:30:13;;;;;;;4.60;4.20;;;;;;;26.41;63.79;100555.14;104078;278;113935;-54
2023/07/17 05:32:47;;;;;;;5.00;4.00;;;;;;;25.99;63.56;100559.91;104069;278;94299;-55
2023/07/17 05:35:21;;;;;;;7.20;4.10;;;;;;;25.65;63.41;100566.27;104556;278;96595;-54
2023/07/17 05:37:56;;;;;;;4.60;4.10;;;;;;;25.33;63.38;100570.36;104542;278;119434;-54
2023/07/17 05:40:29;;;;;;;6.20;4.20;;;;;;;25.02;63.50;100581.40;104101;278;104877;-55
2023/07/17 05:43:04;;;;;;;5.10;4.00;;;;;;;24.76;63.97;100581.81;104523;278;114085;-56
2023/07/17 05:45:40;;;;;;;5.50;4.70;;;;;;;24.67;64.48;100582.48;104539;278;93183;-56
2023/07/17 05:48:14;;;;;;;4.70;4.30;;;;;;;24.82;64.95;100567.61;104118;278;97240;-56
2023/07/17 05:50:49;;;;;;;5.10;4.50;;;;;;;25.08;64.70;100550.69;104130;278;120329;-54
2023/07/17 05:53:24;;;;;;;5.00;4.00;;;;;;;25.06;64.23;100544.94;104103;278;105748;-56
2023/07/17 05:56:02;;;;;;;5.10;4.20;;;;;;;24.96;63.92;100546.75;104117;278;114557;-55
2023/07/17 05:58:41;;;;;;;6.50;4.30;;;;;;;24.83;63.99;100546.39;104125;278;94121;-54
2023/07/17 06:01:16;;;;;;;4.60;4.20;;;;;;;24.75;63.97;100543.33;104582;278;96725;-55
2023/07/17 06:03:51;;;;;;;6.00;4.80;;;;;;;24.69;64.57;100542.08;104108;278;121171;-55
2023/07/17 06:06:26;;;;;;;7.80;4.80;;;;;;;24.70;64.40;100547.21;104116;278;103103;-54
2023/07/17 06:09:03;;;;;;;6.40;5.10;;;;;;;24.83;64.56;100543.08;104098;278;114174;-54
2023/07/17 06:11:40;;;;;;;6.10;4.80;;;;;;;25.06;64.33;100541.69;104543;282;94355;-54
2023/07/17 06:14:15;;;;;;;6.10;4.30;;;;;;;25.39;64.48;100532.22;104137;278;96489;-54
2023/07/17 06:16:51;;;;;;;4.50;4.10;;;;;;;26.85;63.84;100536.67;104076;278;121338;-55
2023/07/17 06:19:25;;;;;;;8.00;4.50;;;;;;;28.67;61.82;100526.42;104121;278;104857;-55
2023/07/17 06:22:00;;;;;;;4.50;4.00;;;;;;;30.83;59.31;100527.15;104090;278;114010;-54
2023/07/17 06:24:34;;;;;;;5.70;4.20;;;;;;;32.38;55.67;100518.88;104084;278;94991;-54
2023/07/17 06:27:13;;;;;;;5.30;3.70;;;;;;;32.85;53.52;100510.88;104122;278;96585;-54
2023/07/17 06:29:48;;;;;;;4.10;3.40;;;;;;;32.84;52.36;100505.35;103923;278;121507;-55
2023/07/17 06:32:26;;;;;;;6.20;3.80;;;;;;;33.39;50.72;100506.85;104076;278;104905;-54
2023/07/17 06:35:01;;;;;;;4.00;3.60;;;;;;;32.89;49.08;100506.41;104112;278;112944;-54
2023/07/17 06:37:38;;;;;;;5.20;3.10;;;;;;;31.99;49.42;100507.73;103968;278;95600;-53
2023/07/17 06:40:14;;;;;;;4.30;3.30;;;;;;;30.92;49.89;100510.66;104111;278;98466;-53
2023/07/17 06:42:49;;;;;;;4.60;4.00;;;;;;;29.97;50.43;100510.81;103924;279;120465;-55
2023/07/17 06:45:23;;;;;;;5.00;3.80;;;;;;;29.39;51.32;100506.66;104090;278;105748;-53
2023/07/17 06:47:57;;;;;;;4.90;3.20;;;;;;;29.02;51.92;100508.64;104051;278;114440;-53
2023/07/17 06:50:31;;;;;;;6.10;3.40;;;;;;;28.74;52.47;100506.96;104546;278;94968;-60
2023/07/17 06:53:06;;;;;;;4.60;3.50;;;;;;;28.57;52.28;100507.83;104118;278;97895;-60
2023/07/17 06:55:40;;;;;;;5.00;3.40;;;;;;;28.70;52.53;100509.21;104204;277;120201;-60
2023/07/17 06:58:15;;;;;;;4.20;3.50;;;;;;;28.88;52.11;100515.04;104055;278;105218;-61
2023/07/17 07:00:48;;;;;;;3.90;3.40;;;;;;;28.98;52.15;100522.13;104173;278;113379;-61
2023/07/17 07:03:22;;;;;;;5.80;3.70;;;;;;;29.34;52.45;100525.02;104184;277;93902;-62
2023/07/17 07:06:01;;;;;;;4.70;3.90;;;;;;;29.93;51.73;100533.11;104066;278;97716;-60
2023/07/17 07:08:36;;;;;;;3.70;3.40;;;;;;;30.03;51.38;100534.15;104191;277;120242;-61
2023/07/17 07:11:11;;;;;;;5.40;4.20;;;;;;;29.99;51.07;100537.66;104242;277;105603;-59
2023/07/17 07:13:45;;;;;;;5.40;3.70;;;;;;;29.73;51.00;100539.55;104619;277;113963;-59
2023/07/17 07:16:20;;;;;;;6.00;4.00;;;;;;;29.48;50.96;100542.11;104149;277;95112;-59
2023/07/17 07:18:54;;;;;;;8.80;3.80;;;;;;;29.29;51.06;100542.09;104192;277;96900;-59
2023/07/17 07:21:28;;;;;;;5.90;3.30;;;;;;;29.00;51.08;100543.08;104611;278;119762;-61
2023/07/17 07:24:03;;;;;;;4.60;3.60;;;;;;;28.89;51.67;100539.95;104178;269;105740;-61
2023/07/17 07:26:37;;;;;;;6.00;3.70;;;;;;;28.75;52.25;100541.72;104003;279;115065;-59
2023/07/17 07:29:11;;;;;;;4.60;3.20;;;;;;;28.63;52.31;100539.04;104180;277;93198;-59
2023/07/17 07:31:45;;;;;;;4.90;3.60;;;;;;;28.54;52.48;100538.95;104210;277;98200;-60
2023/07/17 07:34:19;;;;;;;7.60;4.00;;;;;;;28.41;52.39;100538.73;104148;278;120404;-62
2023/07/17 07:36:54;;;;;;;4.90;3.30;;;;;;;28.34;52.58;100541.27;104202;277;104732;-61
2023/07/17 07:39:28;;;;;;;4.50;3.60;;;;;;;28.32;53.06;100540.34;104208;278;112703;-61
2023/07/17 07:42:02;;;;;;;9.00;4.20;;;;;;;28.22;52.78;100543.39;104189;277;95348;-61
2023/07/17 07:44:37;;;;;;;3.90;3.20;;;;;;;28.12;53.03;100538.33;104580;277;97402;-61
2023/07/17 07:47:11;;;;;;;5.70;3.70;;;;;;;28.02;53.38;100550.36;104179;278;120950;-61
2023/07/17 07:49:48;;;;;;;5.00;4.30;;;;;;;27.99;53.66;100544.71;104227;277;105422;-58
2023/07/17 07:52:22;;;;;;;5.10;3.50;;;;;;;28.12;53.83;100543.38;104167;278;114112;-58
2023/07/17 07:54:56;;;;;;;4.00;3.50;;;;;;;28.08;53.54;100542.38;104186;278;94353;-58
2023/07/17 07:57:30;;;;;;;5.00;3.30;;;;;;;28.05;53.73;100541.61;104428;277;97358;-58
2023/07/17 08:00:05;;;;;;;4.80;3.40;;;;;;;28.37;53.98;100541.25;104192;278;119306;-58
2023/07/17 08:02:39;;;;;;;7.60;3.60;;;;;;;29.05;53.62;100548.38;104184;277;104148;-58
2023/07/17 08:05:14;;;;;;;5.30;3.60;;;;;;;29.65;52.49;100543.96;104557;277;114286;-58
2023/07/17 08:07:47;;;;;;;4.70;3.30;;;;;;;29.76;51.59;100541.17;104579;277;93155;-58
2023/07/17 08:10:22;;;;;;;8.10;3.30;;;;;;;29.72;51.48;100537.08;104195;277;97953;-58
2023/07/17 08:12:57;;;;;;;4.50;3.20;;;;;;;29.65;50.90;100538.91;104558;277;119710;-58
2023/07/17 08:15:31;;;;;;;6.40;3.70;;;;;;;29.55;50.86;100535.84;104186;277;105996;-58
2023/07/17 08:18:05;;;;;;;10.20;4.80;;;;;;;29.59;51.20;100531.90;104156;278;114699;-58
2023/07/17 08:20:40;;;;;;;6.20;3.60;;;;;;;30.12;50.71;100531.37;104169;277;95284;-58
2023/07/17 08:23:14;;;;;;;5.70;3.30;;;;;;;30.41;50.31;100529.10;104567;277;96856;-58
2023/07/17 08:25:48;;;;;;;6.50;3.50;;;;;;;30.60;49.88;100535.47;104212;277;120587;-58
2023/07/17 08:28:23;;;;;;;5.90;3.30;;;;;;;31.57;50.17;100537.82;104205;277;103494;-58
2023/07/17 08:30:57;;;;;;;5.70;3.60;;;;;;;32.45;48.14;100533.35;104173;278;114879;-57
2023/07/17 08:33:31;;;;;;;6.60;3.80;;;;;;;31.90;47.03;100536.30;104570;277;93872;-57
2023/07/17 08:36:06;;;;;;;6.60;3.40;;;;;;;30.92;46.70;100537.85;104197;277;96488;-58
2023/07/17 08:38:41;;;;;;;6.20;3.70;;;;;;;30.34;47.54;100537.40;104186;277;119917;-58
2023/07/17 08:41:16;;;;;;;6.60;3.60;;;;;;;30.81;47.85;100534.91;104091;278;104033;-57
2023/07/17 08:43:53;;;;;;;4.40;3.20;;;;;;;31.59;46.71;100535.75;104165;277;114386;-59
2023/07/17 08:46:29;;;;;;;5.40;3.10;;;;;;;32.51;45.60;100532.30;104215;277;94268;-58
2023/07/17 08:49:05;;;;;;;10.30;3.70;;;;;;;33.81;44.26;100515.98;104212;277;96893;-59
2023/07/17 08:51:41;;;;;;;5.10;2.80;;;;;;;34.89;42.26;100508.00;104063;278;121264;-59
2023/07/17 08:54:17;;;;;;;7.10;3.30;;;;;;;35.63;41.06;100504.27;104094;278;105014;-58
2023/07/17 08:56:52;;;;;;;4.40;3.10;;;;;;;36.19;39.21;100489.94;104621;277;113793;-59
2023/07/17 08:59:27;;;;;;;3.60;2.70;;;;;;;36.67;38.16;100480.29;104185;277;93943;-56
2023/07/17 09:02:04;;;;;;;3.70;2.60;;;;;;;37.03;37.63;100478.42;104180;278;97942;-53
2023/07/17 09:04:37;;;;;;;4.50;2.80;;;;;;;37.37;36.45;100484.65;104200;274;122051;-54
2023/07/17 09:07:12;;;;;;;4.30;3.10;;;;;;;37.28;35.45;100485.63;104621;277;104235;-54
2023/07/17 09:09:46;;;;;;;2.80;2.40;;;;;;;37.15;35.37;100483.23;104182;277;114225;-54
2023/07/17 09:12:24;;;;;;;4.20;2.70;;;;;;;36.91;34.79;100476.65;104215;277;93095;-53
2023/07/17 09:15:00;;;;;;;3.70;2.70;;;;;;;36.35;34.29;100483.40;104203;278;96828;-54
2023/07/17 09:17:36;;;;;;;5.80;2.70;;;;;;;35.97;34.53;100482.79;104183;277;120899;-53
2023/07/17 09:20:19;;;;;;;6.70;2.50;;;;;;;35.85;34.20;100478.30;104164;277;106426;-55
2023/07/17 09:23:00;;;;;;;5.10;2.50;;;;;;;35.81;33.91;100475.45;104209;277;112484;-55
2023/07/17 09:25:39;;;;;;;3.20;2.40;;;;;;;35.69;34.02;100475.73;104017;278;92920;-54
2023/07/17 09:28:14;;;;;;;3.50;2.40;;;;;;;35.60;33.84;100474.17;104602;278;95958;-54
2023/07/17 09:31:02;;;;;;;4.50;2.70;;;;;;;35.50;34.13;100472.08;104220;278;120776;-55
2023/07/17 09:33:41;;;;;;;4.40;2.70;;;;;;;35.35;34.49;100477.23;104176;277;105098;-55
2023/07/17 09:36:15;;;;;;;3.80;2.60;;;;;;;35.28;34.64;100476.42;104192;277;114452;-53
2023/07/17 09:38:54;;;;;;;5.00;3.20;;;;;;;35.11;35.16;100474.83;104168;277;94280;-53
2023/07/17 09:41:29;;;;;;;4.10;2.90;;;;;;;35.16;35.81;100474.20;104197;277;97362;-54
2023/07/17 09:44:09;;;;;;;4.60;2.80;;;;;;;35.09;35.86;100478.92;104166;277;120781;-53
2023/07/17 09:46:45;;;;;;;4.20;3.20;;;;;;;34.85;35.45;100474.19;104197;278;105419;-55
2023/07/17 09:49:21;;;;;;;4.90;2.90;;;;;;;34.68;35.79;100467.01;104145;277;114700;-55
2023/07/17 09:51:59;;;;;;;4.10;2.90;;;;;;;34.60;35.98;100465.35;104525;277;93427;-53
2023/07/17 09:54:36;;;;;;;5.30;3.00;;;;;;;34.37;36.11;100459.71;104206;277;97791;-55
2023/07/17 09:57:18;;;;;;;4.40;2.70;;;;;;;34.25;36.40;100455.61;104184;278;120046;-55
2023/07/17 09:59:53;;;;;;;3.50;2.90;;;;;;;34.34;36.75;100452.30;104210;277;103404;-53
2023/07/17 10:02:34;;;;;;;4.40;3.00;;;;;;;34.36;36.65;100455.83;104142;277;113237;-53
2023/07/17 10:05:09;;;;;;;3.50;2.70;;;;;;;34.27;36.59;100454.63;104217;277;95167;-55
2023/07/17 10:07:49;;;;;;;3.00;2.60;;;;;;;34.34;36.41;100448.00;104206;277;96184;-55
2023/07/17 10:10:23;;;;;;;3.50;2.90;;;;;;;34.57;36.72;100443.84;104215;277;121381;-53
2023/07/17 10:12:58;;;;;;;4.90;3.10;;;;;;;34.66;36.59;100441.91;104205;277;105846;-53
2023/07/17 10:15:33;;;;;;;4.40;2.90;;;;;;;34.71;36.57;100438.97;104038;277;114650;-53
2023/07/17 10:18:12;;;;;;;4.30;3.00;;;;;;;34.70;36.23;100432.50;104178;278;95347;-53
2023/07/17 10:20:57;;;;;;;4.10;2.70;;;;;;;34.58;36.32;100429.20;104600;277;97732;-55
2023/07/17 10:23:32;;;;;;;3.90;2.60;;;;;;;34.62;36.52;100429.73;104561;278;121687;-55
2023/07/17 10:26:17;;;;;;;4.20;2.50;;;;;;;34.66;36.49;100421.13;104596;277;103886;-55
2023/07/17 10:28:55;;;;;;;4.40;3.50;;;;;;;34.78;36.37;100424.04;104143;278;114929;-55
2023/07/17 10:31:33;;;;;;;5.30;3.00;;;;;;;34.90;36.10;100428.51;104571;277;94785;-55
2023/07/17 10:34:08;;;;;;;4.40;2.60;;;;;;;34.68;36.10;100430.11;104154;278;97335;-55
2023/07/17 10:36:45;;;;;;;4.20;2.70;;;;;;;34.48;36.33;100429.48;104183;277;121079;-53
2023/07/17 10:39:25;;;;;;;7.00;3.20;;;;;;;34.39;37.11;100429.09;104593;277;105511;-53
2023/07/17 10:42:07;;;;;;;3.00;2.70;;;;;;;34.64;36.88;100427.23;104614;277;115076;-53
2023/07/17 10:44:43;;;;;;;3.60;2.60;;;;;;;34.75;36.58;100423.20;104191;277;94773;-53
2023/07/17 10:47:17;;;;;;;3.70;2.50;;;;;;;34.75;36.33;100422.91;104195;277;96891;-53
2023/07/17 10:49:54;;;;;;;4.20;2.70;;;;;;;34.59;36.63;100417.38;104170;278;120450;-54
2023/07/17 10:52:32;;;;;;;3.70;2.70;;;;;;;34.31;36.75;100413.66;104579;277;105160;-54
2023/07/17 10:55:09;;;;;;;3.00;2.70;;;;;;;34.31;36.83;100411.73;104187;277;114095;-55
2023/07/17 10:57:43;;;;;;;4.40;2.80;;;;;;;34.24;36.80;100406.42;104033;278;95831;-55
2023/07/17 11:00:19;;;;;;;2.90;2.40;;;;;;;34.18;37.19;100395.41;104199;277;97882;-56
2023/07/17 11:02:55;;;;;;;4.10;2.80;;;;;;;34.23;37.41;100394.73;104586;277;118750;-55
2023/07/17 11:05:29;;;;;;;5.10;2.90;;;;;;;34.25;37.33;100391.81;104160;277;105576;-54
2023/07/17 11:08:03;;;;;;;4.10;3.10;;;;;;;34.40;37.72;100384.32;104153;278;114300;-55
2023/07/17 11:10:40;;;;;;;3.50;2.80;;;;;;;34.75;37.53;100381.10;104182;277;94703;-59
2023/07/17 11:13:15;;;;;;;4.10;2.80;;;;;;;34.82;37.03;100377.25;104207;277;96007;-55
2023/07/17 11:15:51;;;;;;;4.20;2.60;;;;;;;34.68;36.69;100366.41;104172;277;119855;-55
2023/07/17 11:18:25;;;;;;;3.10;2.80;;;;;;;34.30;36.72;100369.06;104163;277;105288;-53
2023/07/17 11:20:59;;;;;;;4.40;2.50;;;;;;;34.14;37.42;100374.92;104190;277;111994;-55
2023/07/17 11:23:34;;;;;;;3.00;2.40;;;;;;;34.17;37.54;100374.36;104598;277;95004;-53
2023/07/17 11:26:08;;;;;;;4.00;3.20;;;;;;;34.16;37.41;100373.69;104184;277;98484;-53
2023/07/17 11:28:42;;;;;;;2.80;2.50;;;;;;;34.05;37.48;100371.70;104187;278;120391;-53
2023/07/17 11:31:27;;;;;;;3.20;2.60;;;;;;;33.75;37.45;100373.95;104158;277;104689;-54
2023/07/17 11:34:06;;;;;;;4.20;2.60;;;;;;;33.58;37.94;100364.34;104199;278;113879;-55
2023/07/17 11:36:46;;;;;;;3.20;2.60;;;;;;;33.64;37.92;100356.73;104178;277;93820;-53
2023/07/17 11:39:23;;;;;;;3.90;2.60;;;;;;;33.96;38.01;100350.36;104199;277;97089;-53
2023/07/17 11:41:59;;;;;;;3.10;2.60;;;;;;;34.26;37.86;100348.48;104171;277;121250;-54
2023/07/17 11:44:37;;;;;;;2.90;2.30;;;;;;;34.23;37.44;100345.66;104181;277;105610;-53
2023/07/17 11:47:13;;;;;;;3.30;2.70;;;;;;;33.93;37.24;100344.41;104149;277;114899;-53
2023/07/17 11:49:47;;;;;;;3.70;2.60;;;;;;;33.96;37.29;100341.88;104150;277;94168;-54
2023/07/17 11:52:24;;;;;;;5.30;2.40;;;;;;;34.29;37.46;100346.89;104190;277;96197;-53
2023/07/17 11:55:02;;;;;;;2.50;2.30;;;;;;;34.45;37.02;100349.92;104142;277;120257;-53
2023/07/17 11:57:36;;;;;;;3.00;2.60;;;;;;;34.36;36.69;100354.83;104057;277;105384;-55
2023/07/17 12:00:12;;;;;;;4.70;2.30;;;;;;;34.20;36.69;100357.10;104565;277;113302;-53